createdAt,value
2023-02-06T00:01:36.116Z,-3.70
2023-02-06T00:04:03.683Z,-3.80
2023-02-06T00:06:31.826Z,-3.80
2023-02-06T00:08:59.954Z,-3.80
2023-02-06T00:11:27.646Z,-3.80
2023-02-06T00:13:55.320Z,-3.80
2023-02-06T00:16:25.760Z,-3.90
2023-02-06T00:18:54.553Z,-3.90
2023-02-06T00:21:25.063Z,-3.90
2023-02-06T00:23:54.846Z,-3.90
2023-02-06T00:26:23.419Z,-3.90
2023-02-06T00:28:51.377Z,-3.90
2023-02-06T00:31:18.980Z,-3.80
2023-02-06T00:33:46.487Z,-3.80
2023-02-06T00:36:13.851Z,-3.80
2023-02-06T00:38:41.619Z,-3.80
2023-02-06T00:41:08.877Z,-3.80
2023-02-06T00:43:37.255Z,-3.80
2023-02-06T00:46:05.030Z,-3.80
2023-02-06T00:48:32.256Z,-3.80
2023-02-06T00:51:00.035Z,-3.80
2023-02-06T00:53:27.749Z,-3.80
2023-02-06T00:55:55.229Z,-3.80
2023-02-06T00:58:23.001Z,-3.90
2023-02-06T01:00:51.177Z,-3.90
2023-02-06T01:03:18.579Z,-3.80
2023-02-06T01:05:45.816Z,-3.80
2023-02-06T01:08:13.564Z,-3.90
2023-02-06T01:10:46.037Z,-3.80
2023-02-06T01:13:13.383Z,-3.80
2023-02-06T01:15:40.764Z,-3.80
2023-02-06T01:18:08.064Z,-3.90
2023-02-06T01:20:35.432Z,-3.90
2023-02-06T01:23:02.963Z,-4.00
2023-02-06T01:25:30.424Z,-4.00
2023-02-06T01:27:57.842Z,-4.00
2023-02-06T01:30:25.594Z,-4.00
2023-02-06T01:32:52.872Z,-4.00
2023-02-06T01:35:20.843Z,-4.00
2023-02-06T01:37:48.390Z,-4.00
2023-02-06T01:40:18.440Z,-4.10
2023-02-06T01:42:46.685Z,-4.00
2023-02-06T01:45:35.825Z,-4.00
2023-02-06T01:48:08.755Z,-4.00
2023-02-06T01:50:42.514Z,-4.10
2023-02-06T01:53:14.652Z,-4.10
2023-02-06T01:55:44.249Z,-4.20
2023-02-06T01:58:15.487Z,-4.20
2023-02-06T02:00:43.122Z,-4.30
2023-02-06T02:03:11.184Z,-4.30
2023-02-06T02:05:42.340Z,-4.30
2023-02-06T02:08:24.224Z,-4.30
2023-02-06T02:10:51.818Z,-4.30
2023-02-06T02:13:19.267Z,-4.30
2023-02-06T02:16:06.377Z,-4.30
2023-02-06T02:18:58.556Z,-4.40
2023-02-06T02:21:53.679Z,-4.40
2023-02-06T02:25:04.067Z,-4.40
2023-02-06T02:27:45.897Z,-4.40
2023-02-06T02:30:48.232Z,-4.40
2023-02-06T02:33:36.989Z,-4.50
2023-02-06T02:36:15.965Z,-4.50
2023-02-06T02:39:04.216Z,-4.50
2023-02-06T02:41:40.205Z,-4.50
2023-02-06T02:44:26.628Z,-4.50
2023-02-06T02:46:58.222Z,-4.50
2023-02-06T02:49:29.020Z,-4.50
2023-02-06T02:51:59.744Z,-4.50
2023-02-06T02:54:28.437Z,-4.50
2023-02-06T02:57:01.551Z,-4.40
2023-02-06T02:59:36.903Z,-4.40
2023-02-06T03:02:10.287Z,-4.40
2023-02-06T03:04:46.638Z,-4.40
2023-02-06T03:07:19.908Z,-4.30
2023-02-06T03:09:56.258Z,-4.30
2023-02-06T03:12:52.964Z,-4.20
2023-02-06T03:15:42.589Z,-4.10
2023-02-06T03:18:18.773Z,-4.00
2023-02-06T03:20:48.258Z,-3.90
2023-02-06T03:23:27.873Z,-3.90
2023-02-06T03:25:58.597Z,-3.90
2023-02-06T03:28:34.212Z,-3.80
2023-02-06T03:31:05.140Z,-3.90
2023-02-06T03:33:40.686Z,-4.00
2023-02-06T03:36:11.909Z,-3.90
2023-02-06T03:38:39.167Z,-3.90
2023-02-06T03:41:07.068Z,-3.90
2023-02-06T03:43:35.405Z,-3.90
2023-02-06T03:46:05.515Z,-3.90
2023-02-06T03:48:37.673Z,-4.00
2023-02-06T03:51:12.052Z,-3.90
2023-02-06T03:53:41.405Z,-3.90
2023-02-06T03:56:15.490Z,-4.00
2023-02-06T03:58:42.960Z,-4.00
2023-02-06T04:01:11.264Z,-4.00
2023-02-06T04:03:38.632Z,-4.00
2023-02-06T04:06:05.922Z,-3.90
2023-02-06T04:08:33.656Z,-3.90
2023-02-06T04:11:01.226Z,-4.00
2023-02-06T04:13:29.185Z,-4.00
2023-02-06T04:15:57.350Z,-4.00
2023-02-06T04:18:24.971Z,-4.00
2023-02-06T04:20:53.300Z,-4.00
2023-02-06T04:23:21.031Z,-4.00
2023-02-06T04:25:49.914Z,-4.10
2023-02-06T04:28:17.756Z,-4.10
2023-02-06T04:30:45.278Z,-4.10
2023-02-06T04:33:12.764Z,-4.10
2023-02-06T04:35:40.505Z,-4.00
2023-02-06T04:38:07.679Z,-4.10
2023-02-06T04:40:35.442Z,-4.00
2023-02-06T04:43:02.917Z,-4.00
2023-02-06T04:45:30.362Z,-4.00
2023-02-06T04:47:59.469Z,-3.90
2023-02-06T04:50:31.528Z,-3.80
2023-02-06T04:52:59.050Z,-3.70
2023-02-06T04:55:26.208Z,-3.70
2023-02-06T04:57:53.678Z,-3.80
2023-02-06T05:00:21.194Z,-3.80
2023-02-06T05:02:48.693Z,-3.70
2023-02-06T05:05:16.417Z,-3.70
2023-02-06T05:07:44.136Z,-3.70
2023-02-06T05:10:12.199Z,-3.80
2023-02-06T05:12:42.516Z,-3.80
2023-02-06T05:15:10.234Z,-3.80
2023-02-06T05:17:37.464Z,-3.80
2023-02-06T05:20:05.641Z,-3.80
2023-02-06T05:22:33.708Z,-3.80
2023-02-06T05:25:01.000Z,-3.80
2023-02-06T05:27:28.782Z,-3.70
2023-02-06T05:29:56.275Z,-3.60
2023-02-06T05:32:23.847Z,-3.50
2023-02-06T05:34:51.288Z,-3.60
2023-02-06T05:37:18.703Z,-3.60
2023-02-06T05:39:46.176Z,-3.60
2023-02-06T05:42:13.654Z,-3.60
2023-02-06T05:44:40.976Z,-3.60
2023-02-06T05:47:08.566Z,-3.60
2023-02-06T05:49:35.787Z,-3.60
2023-02-06T05:52:03.306Z,-3.60
2023-02-06T05:54:32.097Z,-3.60
2023-02-06T05:56:59.463Z,-3.60
2023-02-06T05:59:27.533Z,-3.60
2023-02-06T06:01:55.809Z,-3.70
2023-02-06T06:04:23.625Z,-3.70
2023-02-06T06:06:51.288Z,-3.70
2023-02-06T06:09:19.061Z,-3.70
2023-02-06T06:11:47.022Z,-3.70
2023-02-06T06:14:14.405Z,-3.60
2023-02-06T06:16:43.519Z,-3.60
2023-02-06T06:19:11.034Z,-3.60
2023-02-06T06:21:38.366Z,-3.60
2023-02-06T06:24:05.842Z,-3.60
2023-02-06T06:26:33.891Z,-3.60
2023-02-06T06:29:01.388Z,-3.60
2023-02-06T06:31:31.390Z,-3.60
2023-02-06T06:33:58.951Z,-3.60
2023-02-06T06:36:27.373Z,-3.60
2023-02-06T06:38:55.000Z,-3.50
2023-02-06T06:41:22.534Z,-3.50
2023-02-06T06:43:51.519Z,-3.50
2023-02-06T06:46:19.347Z,-3.40
2023-02-06T06:48:46.747Z,-3.40
2023-02-06T06:51:14.317Z,-3.40
2023-02-06T06:53:41.592Z,-3.40
2023-02-06T06:56:12.007Z,-3.30
2023-02-06T06:58:40.433Z,-3.30
2023-02-06T07:01:08.968Z,-3.20
2023-02-06T07:03:37.156Z,-3.20
2023-02-06T07:06:05.574Z,-3.20
2023-02-06T07:08:32.945Z,-3.10
2023-02-06T07:11:00.403Z,-3.10
2023-02-06T07:13:28.672Z,-3.10
2023-02-06T07:15:56.113Z,-3.00
2023-02-06T07:18:23.991Z,-3.10
2023-02-06T07:20:52.834Z,-3.10
2023-02-06T07:23:20.795Z,-3.10
2023-02-06T07:25:48.226Z,-3.10
2023-02-06T07:28:16.231Z,-3.00
2023-02-06T07:30:44.078Z,-3.00
2023-02-06T07:33:11.313Z,-3.00
2023-02-06T07:35:39.066Z,-2.90
2023-02-06T07:38:06.859Z,-2.90
2023-02-06T07:40:44.610Z,-2.80
2023-02-06T07:43:14.083Z,-2.70
2023-02-06T07:45:41.895Z,-2.60
2023-02-06T07:48:09.425Z,-2.60
2023-02-06T07:50:36.660Z,-2.60
2023-02-06T07:53:04.253Z,-2.40
2023-02-06T07:55:31.957Z,-2.40
2023-02-06T07:57:59.671Z,-2.40
2023-02-06T08:00:27.822Z,-2.40
2023-02-06T08:02:55.287Z,-2.30
2023-02-06T08:05:22.420Z,-2.30
2023-02-06T08:07:52.245Z,-2.30
2023-02-06T08:10:19.575Z,-2.30
2023-02-06T08:12:46.776Z,-2.30
2023-02-06T08:15:14.268Z,-2.30
2023-02-06T08:17:43.494Z,-2.10
2023-02-06T08:20:11.928Z,-2.20
2023-02-06T08:22:39.809Z,-2.10
2023-02-06T08:25:07.869Z,-2.10
2023-02-06T08:27:35.548Z,-2.00
2023-02-06T08:30:03.153Z,-2.00
2023-02-06T08:32:34.889Z,-1.90
2023-02-06T08:35:02.927Z,-1.80
2023-02-06T08:37:33.092Z,-1.80
2023-02-06T08:40:00.690Z,-1.70
2023-02-06T08:42:28.213Z,-1.60
2023-02-06T08:44:56.336Z,-1.50
2023-02-06T08:47:23.585Z,-1.50
2023-02-06T08:49:52.217Z,-1.40
2023-02-06T08:52:19.845Z,-1.40
2023-02-06T08:54:47.403Z,-1.30
2023-02-06T08:57:15.074Z,-1.30
2023-02-06T08:59:42.355Z,-1.30
2023-02-06T09:02:12.167Z,-1.20
2023-02-06T09:04:40.016Z,-1.10
2023-02-06T09:07:07.306Z,-1.10
2023-02-06T09:09:35.043Z,-1.00
2023-02-06T09:12:04.442Z,-0.90
2023-02-06T09:14:32.512Z,-0.80
2023-02-06T09:17:00.262Z,-0.50
2023-02-06T09:19:27.810Z,-0.20
2023-02-06T09:21:55.613Z,0.00
2023-02-06T09:24:23.181Z,0.00
2023-02-06T09:26:59.446Z,0.10
2023-02-06T09:29:32.393Z,0.10
2023-02-06T09:32:00.369Z,0.10
2023-02-06T09:34:34.585Z,0.00
2023-02-06T09:37:06.926Z,0.00
2023-02-06T09:39:34.702Z,0.20
2023-02-06T09:42:21.326Z,0.70
2023-02-06T09:44:56.112Z,1.00
2023-02-06T09:47:29.259Z,1.20
2023-02-06T09:50:09.525Z,1.30
2023-02-06T09:52:40.099Z,2.00
2023-02-06T09:55:20.963Z,2.60
2023-02-06T09:58:01.240Z,3.00
2023-02-06T10:00:43.027Z,3.10
2023-02-06T10:03:29.579Z,2.90
2023-02-06T10:06:12.871Z,2.50
2023-02-06T10:08:53.904Z,1.90
2023-02-06T10:11:49.140Z,2.10
2023-02-06T10:14:37.494Z,2.40
2023-02-06T10:17:34.954Z,3.00
2023-02-06T10:20:11.500Z,3.60
2023-02-06T10:22:48.781Z,4.40
2023-02-06T10:25:36.633Z,5.20
2023-02-06T10:28:17.481Z,5.70
2023-02-06T10:31:22.805Z,6.20
2023-02-06T10:34:17.131Z,6.20
2023-02-06T10:36:50.144Z,6.30
2023-02-06T10:39:35.968Z,6.00
2023-02-06T10:43:11.230Z,6.00
2023-02-06T10:45:55.394Z,5.10
2023-02-06T10:48:29.998Z,4.10
2023-02-06T10:51:12.966Z,3.30
2023-02-06T10:53:52.117Z,3.00
2023-02-06T10:56:27.704Z,2.80
2023-02-06T10:59:19.999Z,2.90
2023-02-06T11:01:49.509Z,3.40
2023-02-06T11:04:34.864Z,3.30
2023-02-06T11:07:08.485Z,3.00
2023-02-06T11:09:36.037Z,2.80
2023-02-06T11:12:05.512Z,2.60
2023-02-06T11:14:36.597Z,3.00
2023-02-06T11:17:04.065Z,3.00
2023-02-06T11:19:44.834Z,3.10
2023-02-06T11:22:16.011Z,3.10
2023-02-06T11:25:02.547Z,3.00
2023-02-06T11:27:31.373Z,2.80
2023-02-06T11:30:04.190Z,2.50
2023-02-06T11:32:41.916Z,2.30
2023-02-06T11:35:29.998Z,1.90
2023-02-06T11:38:24.942Z,1.70
2023-02-06T11:41:01.912Z,1.60
2023-02-06T11:43:34.474Z,1.60
2023-02-06T11:46:13.795Z,1.70
2023-02-06T11:48:56.764Z,2.10
2023-02-06T11:51:24.874Z,2.40
2023-02-06T11:54:06.018Z,2.60
2023-02-06T11:56:33.283Z,2.60
2023-02-06T11:59:23.674Z,2.70
2023-02-06T12:01:52.022Z,2.70
2023-02-06T12:04:47.387Z,2.80
2023-02-06T12:07:42.378Z,2.60
2023-02-06T12:10:21.193Z,2.50
2023-02-06T12:13:00.450Z,2.60
2023-02-06T12:15:48.558Z,2.70
2023-02-06T12:18:26.520Z,2.60
2023-02-06T12:21:05.349Z,2.40
2023-02-06T12:23:41.871Z,2.10
2023-02-06T12:26:18.636Z,2.20
2023-02-06T12:29:04.556Z,2.10
2023-02-06T12:31:32.425Z,2.10
2023-02-06T12:34:10.786Z,2.10
2023-02-06T12:36:54.474Z,2.10
2023-02-06T12:39:23.502Z,2.10
2023-02-06T12:41:54.217Z,2.30
2023-02-06T12:44:25.816Z,2.20
2023-02-06T12:47:18.072Z,2.10
2023-02-06T12:50:05.796Z,2.10
2023-02-06T12:53:02.221Z,1.90
2023-02-06T12:55:57.732Z,1.90
2023-02-06T12:58:44.649Z,1.80
2023-02-06T13:01:32.139Z,2.40
2023-02-06T13:04:07.578Z,3.10
2023-02-06T13:06:53.802Z,3.50
2023-02-06T13:09:31.851Z,3.40
2023-02-06T13:12:14.926Z,3.10
2023-02-06T13:14:52.966Z,2.90
2023-02-06T13:17:27.034Z,2.50
2023-02-06T13:20:09.747Z,2.10
2023-02-06T13:22:45.537Z,2.00
2023-02-06T13:25:32.053Z,2.00
2023-02-06T13:28:21.764Z,1.90
2023-02-06T13:31:00.334Z,2.60
2023-02-06T13:33:41.298Z,3.60
2023-02-06T13:36:17.252Z,4.20
2023-02-06T13:38:44.904Z,4.80
2023-02-06T13:41:15.158Z,4.70
2023-02-06T13:43:48.851Z,4.20
2023-02-06T13:46:20.020Z,3.80
2023-02-06T13:49:24.123Z,3.40
2023-02-06T13:52:12.436Z,3.20
2023-02-06T13:55:23.886Z,3.00
2023-02-06T13:57:58.606Z,2.50
2023-02-06T14:00:48.535Z,2.20
2023-02-06T14:03:31.568Z,1.90
2023-02-06T14:06:17.723Z,1.80
2023-02-06T14:09:14.252Z,2.00
2023-02-06T14:12:08.081Z,2.20
2023-02-06T14:15:23.337Z,2.70
2023-02-06T14:18:28.471Z,3.60
2023-02-06T14:21:38.935Z,4.10
2023-02-06T14:24:23.671Z,4.20
2023-02-06T14:26:58.411Z,4.60
2023-02-06T14:29:54.142Z,4.80
2023-02-06T14:32:31.567Z,4.60
2023-02-06T14:35:22.116Z,4.50
2023-02-06T14:38:14.259Z,4.50
2023-02-06T14:40:46.884Z,4.40
2023-02-06T14:43:34.662Z,4.30
2023-02-06T14:46:08.870Z,3.70
2023-02-06T14:48:39.540Z,3.20
2023-02-06T14:51:08.484Z,2.60
2023-02-06T14:53:41.314Z,2.20
2023-02-06T14:56:22.213Z,1.80
2023-02-06T14:58:52.218Z,1.60
2023-02-06T15:01:19.490Z,1.40
2023-02-06T15:03:51.529Z,1.20
2023-02-06T15:06:38.045Z,1.10
2023-02-06T15:09:08.225Z,0.90
2023-02-06T15:11:35.807Z,0.80
2023-02-06T15:14:07.368Z,0.70
2023-02-06T15:16:49.455Z,0.60
2023-02-06T15:19:22.652Z,0.50
2023-02-06T15:21:53.868Z,0.40
2023-02-06T15:25:06.096Z,0.20
2023-02-06T15:27:38.770Z,0.10
2023-02-06T15:30:24.044Z,0.00
2023-02-06T15:32:54.390Z,0.00
2023-02-06T15:35:42.919Z,-0.20
2023-02-06T15:38:16.113Z,-0.20
2023-02-06T15:40:57.200Z,-0.20
2023-02-06T15:43:26.234Z,-0.30
2023-02-06T15:45:58.282Z,-0.30
2023-02-06T15:48:29.077Z,-0.40
2023-02-06T15:51:25.450Z,-0.40
2023-02-06T15:54:09.685Z,-0.60
2023-02-06T15:56:41.562Z,-0.70
2023-02-06T15:59:24.620Z,-0.70
2023-02-06T16:01:55.479Z,-0.80
2023-02-06T16:04:30.311Z,-0.90
2023-02-06T16:07:08.403Z,-1.00
2023-02-06T16:09:44.364Z,-1.00
2023-02-06T16:12:13.054Z,-1.10
2023-02-06T16:14:42.549Z,-1.20
2023-02-06T16:17:15.863Z,-1.20
2023-02-06T16:20:24.429Z,-1.30
2023-02-06T16:22:58.073Z,-1.30
2023-02-06T16:25:31.879Z,-1.40
2023-02-06T16:28:00.278Z,-1.50
2023-02-06T16:30:31.318Z,-1.50
2023-02-06T16:33:01.877Z,-1.60
2023-02-06T16:35:30.869Z,-1.60
2023-02-06T16:37:58.392Z,-1.70
2023-02-06T16:40:26.991Z,-1.70
2023-02-06T16:42:56.434Z,-1.80
2023-02-06T16:45:27.704Z,-1.90
2023-02-06T16:47:55.608Z,-1.90
2023-02-06T16:50:23.030Z,-1.90
2023-02-06T16:52:53.840Z,-2.00
2023-02-06T16:55:24.304Z,-2.00
2023-02-06T16:58:00.996Z,-2.10
2023-02-06T17:00:32.290Z,-2.20
2023-02-06T17:03:00.105Z,-2.30
2023-02-06T17:05:29.444Z,-2.30
2023-02-06T17:07:59.917Z,-2.40
2023-02-06T17:10:28.680Z,-2.40
2023-02-06T17:12:56.134Z,-2.50
2023-02-06T17:15:23.566Z,-2.50
2023-02-06T17:17:52.624Z,-2.60
2023-02-06T17:20:36.202Z,-2.50
2023-02-06T17:23:04.463Z,-2.60
2023-02-06T17:25:32.311Z,-2.70
2023-02-06T17:28:00.048Z,-2.70
2023-02-06T17:30:28.731Z,-2.80
2023-02-06T17:32:57.214Z,-2.80
2023-02-06T17:35:24.450Z,-2.90
2023-02-06T17:37:52.496Z,-3.00
2023-02-06T17:40:26.766Z,-3.00
2023-02-06T17:42:55.246Z,-3.00
2023-02-06T17:45:23.006Z,-3.10
2023-02-06T17:47:50.401Z,-3.10
2023-02-06T17:50:20.686Z,-3.20
2023-02-06T17:52:48.530Z,-3.20
2023-02-06T17:55:16.936Z,-3.30
2023-02-06T17:57:44.575Z,-3.30
2023-02-06T18:00:18.359Z,-3.30
2023-02-06T18:02:45.929Z,-3.40
2023-02-06T18:05:13.576Z,-3.40
2023-02-06T18:07:42.954Z,-3.40
2023-02-06T18:10:46.370Z,-3.50
2023-02-06T18:13:14.467Z,-3.50
2023-02-06T18:15:48.908Z,-3.60
2023-02-06T18:18:17.137Z,-3.60
2023-02-06T18:20:45.946Z,-3.60
2023-02-06T18:23:20.989Z,-3.70
2023-02-06T18:25:48.191Z,-3.80
2023-02-06T18:28:17.650Z,-3.80
2023-02-06T18:30:45.693Z,-3.80
2023-02-06T18:33:13.732Z,-3.90
2023-02-06T18:35:46.315Z,-4.00
2023-02-06T18:38:15.730Z,-4.10
2023-02-06T18:40:46.532Z,-4.00
2023-02-06T18:43:18.338Z,-4.20
2023-02-06T18:45:48.730Z,-4.20
2023-02-06T18:48:16.501Z,-4.10
2023-02-06T18:50:44.114Z,-4.20
2023-02-06T18:53:12.031Z,-4.20
2023-02-06T18:55:42.380Z,-4.20
2023-02-06T18:58:10.480Z,-4.20
2023-02-06T19:00:43.375Z,-4.20
2023-02-06T19:03:15.877Z,-4.30
2023-02-06T19:05:46.643Z,-4.30
2023-02-06T19:08:15.719Z,-4.30
2023-02-06T19:10:45.219Z,-4.40
2023-02-06T19:13:12.582Z,-4.40
2023-02-06T19:15:41.076Z,-4.40
2023-02-06T19:18:10.379Z,-4.50
2023-02-06T19:20:41.705Z,-4.50
2023-02-06T19:23:09.071Z,-4.50
2023-02-06T19:25:44.511Z,-4.50
2023-02-06T19:28:12.211Z,-4.50
2023-02-06T19:30:40.294Z,-4.50
2023-02-06T19:33:09.337Z,-4.60
2023-02-06T19:35:41.340Z,-4.60
2023-02-06T19:38:41.725Z,-4.70
2023-02-06T19:41:42.534Z,-4.70
2023-02-06T19:44:12.690Z,-4.70
2023-02-06T19:46:43.541Z,-4.70
2023-02-06T19:49:11.941Z,-4.80
2023-02-06T19:51:42.346Z,-4.80
2023-02-06T19:54:10.285Z,-4.80
2023-02-06T19:56:40.966Z,-4.90
2023-02-06T19:59:18.862Z,-4.90
2023-02-06T20:01:55.845Z,-4.90
2023-02-06T20:04:29.789Z,-5.00
2023-02-06T20:06:57.519Z,-5.00
2023-02-06T20:09:25.639Z,-5.10
2023-02-06T20:11:52.983Z,-5.20
2023-02-06T20:14:21.157Z,-5.20
2023-02-06T20:16:49.344Z,-5.20
2023-02-06T20:19:23.867Z,-5.20
2023-02-06T20:21:54.753Z,-5.20
2023-02-06T20:24:26.951Z,-5.30
2023-02-06T20:26:57.279Z,-5.30
2023-02-06T20:29:31.260Z,-5.30
2023-02-06T20:32:00.128Z,-5.30
2023-02-06T20:34:28.576Z,-5.40
2023-02-06T20:36:57.275Z,-5.40
2023-02-06T20:39:26.214Z,-5.40
2023-02-06T20:41:54.432Z,-5.40
2023-02-06T20:44:22.219Z,-5.40
2023-02-06T20:46:50.229Z,-5.50
2023-02-06T20:49:26.104Z,-5.60
2023-02-06T20:51:54.106Z,-5.70
2023-02-06T20:54:22.149Z,-5.70
2023-02-06T20:56:49.823Z,-5.70
2023-02-06T20:59:19.423Z,-5.70
2023-02-06T21:01:46.879Z,-5.60
2023-02-06T21:04:17.094Z,-5.70
2023-02-06T21:06:45.668Z,-5.80
2023-02-06T21:09:13.169Z,-5.80
2023-02-06T21:11:49.133Z,-5.80
2023-02-06T21:14:17.424Z,-5.80
2023-02-06T21:16:45.066Z,-5.80
2023-02-06T21:19:14.849Z,-5.90
2023-02-06T21:21:44.986Z,-5.90
2023-02-06T21:24:14.826Z,-5.90
2023-02-06T21:26:42.468Z,-5.90
2023-02-06T21:29:11.977Z,-5.90
2023-02-06T21:31:39.562Z,-5.90
2023-02-06T21:34:17.648Z,-6.00
2023-02-06T21:36:45.541Z,-6.00
2023-02-06T21:39:21.297Z,-6.00
2023-02-06T21:41:54.068Z,-6.00
2023-02-06T21:44:24.448Z,-6.00
2023-02-06T21:46:51.823Z,-6.00
2023-02-06T21:49:21.523Z,-6.00
2023-02-06T21:51:48.934Z,-6.00
2023-02-06T21:54:17.577Z,-6.10
2023-02-06T21:56:45.729Z,-6.20
2023-02-06T21:59:13.428Z,-6.30
2023-02-06T22:01:41.480Z,-6.30
2023-02-06T22:04:10.621Z,-6.30
2023-02-06T22:06:38.672Z,-6.40
2023-02-06T22:09:09.515Z,-6.40
2023-02-06T22:11:42.184Z,-6.40
2023-02-06T22:14:15.914Z,-6.40
2023-02-06T22:16:43.554Z,-6.40
2023-02-06T22:19:11.686Z,-6.50
2023-02-06T22:21:39.414Z,-6.50
2023-02-06T22:24:08.428Z,-6.60
2023-02-06T22:26:39.475Z,-6.40
2023-02-06T22:29:08.848Z,-6.60
2023-02-06T22:31:37.039Z,-6.70
2023-02-06T22:34:05.191Z,-6.70
2023-02-06T22:36:33.883Z,-6.60
2023-02-06T22:39:07.187Z,-6.60
2023-02-06T22:41:38.709Z,-6.70
2023-02-06T22:44:06.466Z,-6.70
2023-02-06T22:46:37.204Z,-6.70
2023-02-06T22:49:09.437Z,-6.80
2023-02-06T22:51:38.499Z,-6.70
2023-02-06T22:54:06.576Z,-6.70
2023-02-06T22:56:37.510Z,-6.70
2023-02-06T22:59:17.197Z,-6.70
2023-02-06T23:01:46.982Z,-6.70
2023-02-06T23:04:20.504Z,-6.70
2023-02-06T23:06:49.389Z,-6.80
2023-02-06T23:09:27.629Z,-6.80
2023-02-06T23:11:58.932Z,-6.80
2023-02-06T23:14:29.084Z,-6.80
2023-02-06T23:16:57.407Z,-6.90
2023-02-06T23:19:24.924Z,-7.00
2023-02-06T23:21:52.684Z,-7.00
2023-02-06T23:24:20.792Z,-6.80
2023-02-06T23:26:50.722Z,-6.80
2023-02-06T23:29:19.718Z,-6.90
2023-02-06T23:31:48.401Z,-6.90
2023-02-06T23:34:17.522Z,-6.90
2023-02-06T23:36:46.465Z,-7.10
2023-02-06T23:39:14.418Z,-7.20
2023-02-06T23:41:41.688Z,-7.20
2023-02-06T23:44:09.611Z,-7.30
2023-02-06T23:46:38.831Z,-7.20
2023-02-06T23:49:07.109Z,-7.20
2023-02-06T23:51:36.032Z,-7.20
2023-02-06T23:54:04.191Z,-7.20
2023-02-06T23:56:32.639Z,-7.20
2023-02-06T23:59:02.049Z,-7.30
